sensor_id;sensor_type;location;lat;lon;timestamp;P1;durP1;ratioP1;P2;durP2;ratioP2
53036;SDS011;38924;52.134;4.666;2023-04-08T00:01:54;49.88;;;36.55;;
53036;SDS011;38924;52.134;4.666;2023-04-08T00:04:20;43.58;;;29.60;;
53036;SDS011;38924;52.134;4.666;2023-04-08T00:06:46;45.92;;;29.08;;
53036;SDS011;38924;52.134;4.666;2023-04-08T00:09:11;41.08;;;27.38;;
53036;SDS011;38924;52.134;4.666;2023-04-08T00:11:37;49.50;;;29.05;;
53036;SDS011;38924;52.134;4.666;2023-04-08T00:14:03;44.38;;;29.02;;
53036;SDS011;38924;52.134;4.666;2023-04-08T00:16:29;45.65;;;29.83;;
53036;SDS011;38924;52.134;4.666;2023-04-08T00:18:55;41.05;;;27.85;;
53036;SDS011;38924;52.134;4.666;2023-04-08T00:21:21;45.53;;;28.08;;
53036;SDS011;38924;52.134;4.666;2023-04-08T00:23:48;42.92;;;28.85;;
53036;SDS011;38924;52.134;4.666;2023-04-08T00:26:13;47.20;;;28.58;;
53036;SDS011;38924;52.134;4.666;2023-04-08T00:28:40;44.53;;;28.83;;
53036;SDS011;38924;52.134;4.666;2023-04-08T00:31:07;44.63;;;28.40;;
53036;SDS011;38924;52.134;4.666;2023-04-08T00:33:32;48.90;;;29.35;;
53036;SDS011;38924;52.134;4.666;2023-04-08T00:35:58;46.88;;;29.55;;
53036;SDS011;38924;52.134;4.666;2023-04-08T00:38:24;44.55;;;29.08;;
53036;SDS011;38924;52.134;4.666;2023-04-08T00:40:49;46.40;;;28.77;;
53036;SDS011;38924;52.134;4.666;2023-04-08T00:43:15;43.25;;;28.33;;
53036;SDS011;38924;52.134;4.666;2023-04-08T00:45:41;48.80;;;29.15;;
53036;SDS011;38924;52.134;4.666;2023-04-08T00:48:07;46.95;;;29.25;;
53036;SDS011;38924;52.134;4.666;2023-04-08T00:50:33;46.40;;;29.67;;
53036;SDS011;38924;52.134;4.666;2023-04-08T00:52:59;44.08;;;27.67;;
53036;SDS011;38924;52.134;4.666;2023-04-08T00:55:24;42.83;;;28.70;;
53036;SDS011;38924;52.134;4.666;2023-04-08T00:57:50;51.47;;;30.42;;
53036;SDS011;38924;52.134;4.666;2023-04-08T01:00:16;47.65;;;29.70;;
53036;SDS011;38924;52.134;4.666;2023-04-08T01:02:50;50.15;;;30.83;;
53036;SDS011;38924;52.134;4.666;2023-04-08T01:05:27;44.28;;;29.42;;
53036;SDS011;38924;52.134;4.666;2023-04-08T01:07:55;50.28;;;29.88;;
53036;SDS011;38924;52.134;4.666;2023-04-08T01:10:25;49.95;;;30.27;;
53036;SDS011;38924;52.134;4.666;2023-04-08T01:12:54;48.22;;;29.23;;
53036;SDS011;38924;52.134;4.666;2023-04-08T01:15:23;43.75;;;28.95;;
53036;SDS011;38924;52.134;4.666;2023-04-08T01:17:50;44.60;;;29.55;;
53036;SDS011;38924;52.134;4.666;2023-04-08T01:20:17;49.55;;;27.73;;
53036;SDS011;38924;52.134;4.666;2023-04-08T01:25:32;51.55;;;29.02;;
53036;SDS011;38924;52.134;4.666;2023-04-08T01:27:59;47.42;;;30.23;;
53036;SDS011;38924;52.134;4.666;2023-04-08T01:30:25;53.30;;;32.63;;
53036;SDS011;38924;52.134;4.666;2023-04-08T01:32:56;54.90;;;31.60;;
53036;SDS011;38924;52.134;4.666;2023-04-08T01:35:24;47.38;;;29.63;;
53036;SDS011;38924;52.134;4.666;2023-04-08T01:37:53;54.05;;;30.80;;
53036;SDS011;38924;52.134;4.666;2023-04-08T01:40:21;53.85;;;32.85;;
53036;SDS011;38924;52.134;4.666;2023-04-08T01:42:47;56.72;;;32.28;;
53036;SDS011;38924;52.134;4.666;2023-04-08T01:45:14;52.40;;;30.45;;
53036;SDS011;38924;52.134;4.666;2023-04-08T01:47:40;53.45;;;31.95;;
53036;SDS011;38924;52.134;4.666;2023-04-08T01:50:06;52.40;;;29.92;;
53036;SDS011;38924;52.134;4.666;2023-04-08T01:52:36;51.42;;;30.88;;
53036;SDS011;38924;52.134;4.666;2023-04-08T01:55:03;52.50;;;31.13;;
53036;SDS011;38924;52.134;4.666;2023-04-08T01:57:30;55.55;;;32.70;;
53036;SDS011;38924;52.134;4.666;2023-04-08T01:59:58;57.17;;;33.22;;
53036;SDS011;38924;52.134;4.666;2023-04-08T02:02:25;48.20;;;31.55;;
53036;SDS011;38924;52.134;4.666;2023-04-08T02:04:52;48.83;;;30.50;;
53036;SDS011;38924;52.134;4.666;2023-04-08T02:07:18;49.03;;;30.15;;
53036;SDS011;38924;52.134;4.666;2023-04-08T02:09:44;48.17;;;30.70;;
53036;SDS011;38924;52.134;4.666;2023-04-08T02:12:09;51.80;;;31.90;;
53036;SDS011;38924;52.134;4.666;2023-04-08T02:14:36;49.95;;;29.75;;
53036;SDS011;38924;52.134;4.666;2023-04-08T02:17:04;52.67;;;30.45;;
53036;SDS011;38924;52.134;4.666;2023-04-08T02:19:39;56.22;;;31.88;;
53036;SDS011;38924;52.134;4.666;2023-04-08T02:22:09;56.90;;;32.83;;
53036;SDS011;38924;52.134;4.666;2023-04-08T02:24:40;61.17;;;34.10;;
53036;SDS011;38924;52.134;4.666;2023-04-08T02:27:06;55.25;;;33.28;;
53036;SDS011;38924;52.134;4.666;2023-04-08T02:29:33;56.33;;;33.10;;
53036;SDS011;38924;52.134;4.666;2023-04-08T02:31:59;66.75;;;34.88;;
53036;SDS011;38924;52.134;4.666;2023-04-08T02:34:26;60.63;;;34.60;;
53036;SDS011;38924;52.134;4.666;2023-04-08T02:36:52;63.85;;;36.13;;
53036;SDS011;38924;52.134;4.666;2023-04-08T02:39:18;59.65;;;34.97;;
53036;SDS011;38924;52.134;4.666;2023-04-08T02:41:47;58.03;;;33.80;;
53036;SDS011;38924;52.134;4.666;2023-04-08T02:44:12;59.13;;;36.00;;
53036;SDS011;38924;52.134;4.666;2023-04-08T02:46:39;68.93;;;36.70;;
53036;SDS011;38924;52.134;4.666;2023-04-08T02:49:05;68.85;;;39.17;;
53036;SDS011;38924;52.134;4.666;2023-04-08T02:51:31;64.45;;;38.03;;
53036;SDS011;38924;52.134;4.666;2023-04-08T02:53:57;67.35;;;39.35;;
53036;SDS011;38924;52.134;4.666;2023-04-08T02:56:23;65.15;;;37.10;;
53036;SDS011;38924;52.134;4.666;2023-04-08T02:58:48;77.03;;;39.97;;
53036;SDS011;38924;52.134;4.666;2023-04-08T03:01:16;66.85;;;38.03;;
53036;SDS011;38924;52.134;4.666;2023-04-08T03:03:42;64.70;;;37.42;;
53036;SDS011;38924;52.134;4.666;2023-04-08T03:06:07;62.33;;;35.90;;
53036;SDS011;38924;52.134;4.666;2023-04-08T03:08:33;63.95;;;36.92;;
53036;SDS011;38924;52.134;4.666;2023-04-08T03:10:59;64.38;;;36.17;;
53036;SDS011;38924;52.134;4.666;2023-04-08T03:13:24;61.97;;;36.10;;
53036;SDS011;38924;52.134;4.666;2023-04-08T03:15:50;62.47;;;33.83;;
53036;SDS011;38924;52.134;4.666;2023-04-08T03:18:15;60.80;;;35.90;;
53036;SDS011;38924;52.134;4.666;2023-04-08T03:20:42;59.10;;;35.40;;
53036;SDS011;38924;52.134;4.666;2023-04-08T03:23:07;59.58;;;36.13;;
53036;SDS011;38924;52.134;4.666;2023-04-08T03:25:33;55.95;;;32.50;;
53036;SDS011;38924;52.134;4.666;2023-04-08T03:27:59;57.60;;;35.15;;
53036;SDS011;38924;52.134;4.666;2023-04-08T03:30:24;55.25;;;34.50;;
53036;SDS011;38924;52.134;4.666;2023-04-08T03:32:50;59.75;;;35.78;;
53036;SDS011;38924;52.134;4.666;2023-04-08T03:35:16;67.97;;;40.22;;
53036;SDS011;38924;52.134;4.666;2023-04-08T03:37:41;64.30;;;39.20;;
53036;SDS011;38924;52.134;4.666;2023-04-08T03:40:07;75.00;;;39.80;;
53036;SDS011;38924;52.134;4.666;2023-04-08T03:42:33;69.07;;;38.25;;
53036;SDS011;38924;52.134;4.666;2023-04-08T03:44:59;67.00;;;37.70;;
53036;SDS011;38924;52.134;4.666;2023-04-08T03:47:25;64.95;;;38.88;;
53036;SDS011;38924;52.134;4.666;2023-04-08T03:49:52;66.35;;;37.88;;
53036;SDS011;38924;52.134;4.666;2023-04-08T03:52:17;68.18;;;39.28;;
53036;SDS011;38924;52.134;4.666;2023-04-08T03:54:43;67.47;;;38.22;;
53036;SDS011;38924;52.134;4.666;2023-04-08T03:57:09;60.05;;;35.45;;
53036;SDS011;38924;52.134;4.666;2023-04-08T03:59:36;62.90;;;38.13;;
53036;SDS011;38924;52.134;4.666;2023-04-08T04:02:04;63.58;;;39.47;;
53036;SDS011;38924;52.134;4.666;2023-04-08T04:04:32;63.33;;;36.38;;
53036;SDS011;38924;52.134;4.666;2023-04-08T04:06:58;66.03;;;38.83;;
53036;SDS011;38924;52.134;4.666;2023-04-08T04:09:24;63.25;;;36.90;;
53036;SDS011;38924;52.134;4.666;2023-04-08T04:11:49;65.75;;;38.95;;
53036;SDS011;38924;52.134;4.666;2023-04-08T04:14:15;74.28;;;40.97;;
53036;SDS011;38924;52.134;4.666;2023-04-08T04:16:41;78.70;;;42.65;;
53036;SDS011;38924;52.134;4.666;2023-04-08T04:19:06;78.25;;;41.25;;
53036;SDS011;38924;52.134;4.666;2023-04-08T04:21:32;72.63;;;40.60;;
53036;SDS011;38924;52.134;4.666;2023-04-08T04:23:58;77.75;;;41.80;;
53036;SDS011;38924;52.134;4.666;2023-04-08T04:26:23;71.38;;;40.15;;
53036;SDS011;38924;52.134;4.666;2023-04-08T04:28:50;65.18;;;39.53;;
53036;SDS011;38924;52.134;4.666;2023-04-08T04:31:22;67.03;;;39.53;;
53036;SDS011;38924;52.134;4.666;2023-04-08T04:33:48;73.05;;;38.00;;
53036;SDS011;38924;52.134;4.666;2023-04-08T04:36:14;64.93;;;38.40;;
53036;SDS011;38924;52.134;4.666;2023-04-08T04:38:39;69.03;;;39.65;;
53036;SDS011;38924;52.134;4.666;2023-04-08T04:41:05;72.55;;;39.25;;
53036;SDS011;38924;52.134;4.666;2023-04-08T04:43:31;67.00;;;38.40;;
53036;SDS011;38924;52.134;4.666;2023-04-08T04:45:57;55.60;;;34.25;;
53036;SDS011;38924;52.134;4.666;2023-04-08T04:48:22;61.58;;;35.70;;
53036;SDS011;38924;52.134;4.666;2023-04-08T04:50:54;69.70;;;39.20;;
53036;SDS011;38924;52.134;4.666;2023-04-08T04:53:20;61.95;;;38.35;;
53036;SDS011;38924;52.134;4.666;2023-04-08T04:55:46;63.70;;;37.08;;
53036;SDS011;38924;52.134;4.666;2023-04-08T04:58:12;69.15;;;37.47;;
53036;SDS011;38924;52.134;4.666;2023-04-08T05:00:37;74.93;;;41.13;;
53036;SDS011;38924;52.134;4.666;2023-04-08T05:03:03;72.85;;;39.60;;
53036;SDS011;38924;52.134;4.666;2023-04-08T05:05:29;71.18;;;39.97;;
53036;SDS011;38924;52.134;4.666;2023-04-08T05:07:54;69.45;;;38.85;;
53036;SDS011;38924;52.134;4.666;2023-04-08T05:10:20;79.15;;;42.67;;
53036;SDS011;38924;52.134;4.666;2023-04-08T05:12:46;65.15;;;37.33;;
53036;SDS011;38924;52.134;4.666;2023-04-08T05:15:12;60.47;;;32.42;;
53036;SDS011;38924;52.134;4.666;2023-04-08T05:17:37;53.55;;;29.40;;
53036;SDS011;38924;52.134;4.666;2023-04-08T05:20:03;44.88;;;27.65;;
53036;SDS011;38924;52.134;4.666;2023-04-08T05:22:29;42.88;;;27.05;;
53036;SDS011;38924;52.134;4.666;2023-04-08T05:24:55;39.10;;;25.85;;
53036;SDS011;38924;52.134;4.666;2023-04-08T05:27:20;37.50;;;27.20;;
53036;SDS011;38924;52.134;4.666;2023-04-08T05:29:46;35.63;;;26.55;;
53036;SDS011;38924;52.134;4.666;2023-04-08T05:32:12;35.65;;;25.02;;
53036;SDS011;38924;52.134;4.666;2023-04-08T05:34:37;37.65;;;26.42;;
53036;SDS011;38924;52.134;4.666;2023-04-08T05:37:03;34.53;;;24.50;;
53036;SDS011;38924;52.134;4.666;2023-04-08T05:39:29;36.30;;;26.02;;
53036;SDS011;38924;52.134;4.666;2023-04-08T05:41:54;34.35;;;25.33;;
53036;SDS011;38924;52.134;4.666;2023-04-08T05:44:20;35.42;;;25.17;;
53036;SDS011;38924;52.134;4.666;2023-04-08T05:46:46;35.67;;;25.38;;
53036;SDS011;38924;52.134;4.666;2023-04-08T05:49:12;32.60;;;23.45;;
53036;SDS011;38924;52.134;4.666;2023-04-08T05:51:38;35.42;;;26.20;;
53036;SDS011;38924;52.134;4.666;2023-04-08T05:54:03;37.10;;;26.30;;
53036;SDS011;38924;52.134;4.666;2023-04-08T05:56:29;36.95;;;25.90;;
53036;SDS011;38924;52.134;4.666;2023-04-08T05:58:56;37.47;;;26.38;;
53036;SDS011;38924;52.134;4.666;2023-04-08T06:01:22;38.95;;;26.52;;
53036;SDS011;38924;52.134;4.666;2023-04-08T06:03:48;55.25;;;36.15;;
53036;SDS011;38924;52.134;4.666;2023-04-08T06:06:13;44.00;;;29.75;;
53036;SDS011;38924;52.134;4.666;2023-04-08T06:08:39;42.38;;;26.90;;
53036;SDS011;38924;52.134;4.666;2023-04-08T06:11:11;44.28;;;29.63;;
53036;SDS011;38924;52.134;4.666;2023-04-08T06:13:36;43.13;;;29.48;;
53036;SDS011;38924;52.134;4.666;2023-04-08T06:16:09;39.22;;;28.90;;
53036;SDS011;38924;52.134;4.666;2023-04-08T06:18:35;40.25;;;29.23;;
53036;SDS011;38924;52.134;4.666;2023-04-08T06:21:01;40.88;;;30.08;;
53036;SDS011;38924;52.134;4.666;2023-04-08T06:23:29;42.10;;;30.50;;
53036;SDS011;38924;52.134;4.666;2023-04-08T06:25:55;40.47;;;29.98;;
53036;SDS011;38924;52.134;4.666;2023-04-08T06:28:21;39.75;;;29.08;;
53036;SDS011;38924;52.134;4.666;2023-04-08T06:30:47;35.10;;;27.00;;
53036;SDS011;38924;52.134;4.666;2023-04-08T06:33:13;38.75;;;27.83;;
53036;SDS011;38924;52.134;4.666;2023-04-08T06:35:38;39.83;;;28.67;;
53036;SDS011;38924;52.134;4.666;2023-04-08T06:38:04;38.53;;;28.63;;
53036;SDS011;38924;52.134;4.666;2023-04-08T06:40:30;36.83;;;27.67;;
53036;SDS011;38924;52.134;4.666;2023-04-08T06:42:58;39.03;;;28.08;;
53036;SDS011;38924;52.134;4.666;2023-04-08T06:45:33;32.47;;;25.67;;
53036;SDS011;38924;52.134;4.666;2023-04-08T06:48:01;33.83;;;26.83;;
53036;SDS011;38924;52.134;4.666;2023-04-08T06:50:27;31.48;;;25.35;;
53036;SDS011;38924;52.134;4.666;2023-04-08T06:52:52;32.88;;;25.45;;
53036;SDS011;38924;52.134;4.666;2023-04-08T06:55:19;35.38;;;28.35;;
53036;SDS011;38924;52.134;4.666;2023-04-08T06:57:45;32.60;;;25.80;;
53036;SDS011;38924;52.134;4.666;2023-04-08T07:00:10;29.85;;;25.75;;
53036;SDS011;38924;52.134;4.666;2023-04-08T07:02:36;31.38;;;25.13;;
53036;SDS011;38924;52.134;4.666;2023-04-08T07:05:02;28.48;;;24.33;;
53036;SDS011;38924;52.134;4.666;2023-04-08T07:07:28;30.77;;;24.92;;
53036;SDS011;38924;52.134;4.666;2023-04-08T07:09:54;25.92;;;23.13;;
53036;SDS011;38924;52.134;4.666;2023-04-08T07:12:19;27.55;;;24.42;;
53036;SDS011;38924;52.134;4.666;2023-04-08T07:14:45;26.02;;;23.17;;
53036;SDS011;38924;52.134;4.666;2023-04-08T07:17:11;26.35;;;22.20;;
53036;SDS011;38924;52.134;4.666;2023-04-08T07:19:36;28.70;;;24.48;;
53036;SDS011;38924;52.134;4.666;2023-04-08T07:22:03;27.77;;;23.65;;
53036;SDS011;38924;52.134;4.666;2023-04-08T07:24:28;25.70;;;22.73;;
53036;SDS011;38924;52.134;4.666;2023-04-08T07:26:54;26.15;;;22.85;;
53036;SDS011;38924;52.134;4.666;2023-04-08T07:29:21;26.83;;;22.90;;
53036;SDS011;38924;52.134;4.666;2023-04-08T07:31:46;27.52;;;24.00;;
53036;SDS011;38924;52.134;4.666;2023-04-08T07:34:12;27.02;;;23.58;;
53036;SDS011;38924;52.134;4.666;2023-04-08T07:36:38;26.35;;;23.38;;
53036;SDS011;38924;52.134;4.666;2023-04-08T07:39:03;27.00;;;23.55;;
53036;SDS011;38924;52.134;4.666;2023-04-08T07:41:29;30.27;;;25.05;;
53036;SDS011;38924;52.134;4.666;2023-04-08T07:43:55;28.85;;;23.88;;
53036;SDS011;38924;52.134;4.666;2023-04-08T07:46:21;28.00;;;24.20;;
53036;SDS011;38924;52.134;4.666;2023-04-08T07:48:46;25.52;;;22.83;;
53036;SDS011;38924;52.134;4.666;2023-04-08T07:51:12;24.75;;;22.23;;
53036;SDS011;38924;52.134;4.666;2023-04-08T07:53:39;24.27;;;21.67;;
53036;SDS011;38924;52.134;4.666;2023-04-08T07:56:11;24.33;;;21.60;;
53036;SDS011;38924;52.134;4.666;2023-04-08T07:58:37;24.25;;;21.70;;
53036;SDS011;38924;52.134;4.666;2023-04-08T08:01:02;24.98;;;22.38;;
53036;SDS011;38924;52.134;4.666;2023-04-08T08:03:28;26.50;;;23.45;;
53036;SDS011;38924;52.134;4.666;2023-04-08T08:05:54;24.83;;;22.10;;
53036;SDS011;38924;52.134;4.666;2023-04-08T08:08:19;25.88;;;22.95;;
53036;SDS011;38924;52.134;4.666;2023-04-08T08:10:45;26.73;;;23.77;;
53036;SDS011;38924;52.134;4.666;2023-04-08T08:13:11;25.00;;;22.25;;
53036;SDS011;38924;52.134;4.666;2023-04-08T08:15:41;24.88;;;22.10;;
53036;SDS011;38924;52.134;4.666;2023-04-08T08:18:06;23.02;;;20.67;;
53036;SDS011;38924;52.134;4.666;2023-04-08T08:20:34;22.25;;;19.95;;
53036;SDS011;38924;52.134;4.666;2023-04-08T08:23:02;22.60;;;20.20;;
53036;SDS011;38924;52.134;4.666;2023-04-08T08:25:28;19.85;;;17.75;;
53036;SDS011;38924;52.134;4.666;2023-04-08T08:27:53;19.65;;;17.50;;
53036;SDS011;38924;52.134;4.666;2023-04-08T08:30:19;17.00;;;15.25;;
53036;SDS011;38924;52.134;4.666;2023-04-08T08:32:46;16.45;;;14.55;;
53036;SDS011;38924;52.134;4.666;2023-04-08T08:35:12;16.80;;;14.40;;
53036;SDS011;38924;52.134;4.666;2023-04-08T08:37:38;15.82;;;14.23;;
53036;SDS011;38924;52.134;4.666;2023-04-08T08:40:04;17.67;;;14.82;;
53036;SDS011;38924;52.134;4.666;2023-04-08T08:42:31;18.02;;;15.48;;
53036;SDS011;38924;52.134;4.666;2023-04-08T08:44:56;17.85;;;14.98;;
53036;SDS011;38924;52.134;4.666;2023-04-08T08:47:22;15.75;;;13.95;;
53036;SDS011;38924;52.134;4.666;2023-04-08T08:49:48;15.52;;;14.02;;
53036;SDS011;38924;52.134;4.666;2023-04-08T08:52:16;16.42;;;14.48;;
53036;SDS011;38924;52.134;4.666;2023-04-08T08:54:43;16.05;;;14.35;;
53036;SDS011;38924;52.134;4.666;2023-04-08T08:57:18;15.82;;;14.13;;
53036;SDS011;38924;52.134;4.666;2023-04-08T08:59:45;17.00;;;15.20;;
53036;SDS011;38924;52.134;4.666;2023-04-08T09:05:08;15.68;;;14.10;;
53036;SDS011;38924;52.134;4.666;2023-04-08T09:07:35;18.75;;;14.80;;
53036;SDS011;38924;52.134;4.666;2023-04-08T09:10:01;18.92;;;14.13;;
53036;SDS011;38924;52.134;4.666;2023-04-08T09:12:27;16.70;;;14.93;;
53036;SDS011;38924;52.134;4.666;2023-04-08T09:15:02;16.05;;;14.45;;
53036;SDS011;38924;52.134;4.666;2023-04-08T09:17:34;16.60;;;14.18;;
53036;SDS011;38924;52.134;4.666;2023-04-08T09:20:04;17.05;;;13.18;;
53036;SDS011;38924;52.134;4.666;2023-04-08T09:22:34;14.35;;;12.95;;
53036;SDS011;38924;52.134;4.666;2023-04-08T09:25:21;12.02;;;10.82;;
53036;SDS011;38924;52.134;4.666;2023-04-08T09:27:47;13.60;;;12.25;;
53036;SDS011;38924;52.134;4.666;2023-04-08T09:30:13;14.85;;;11.70;;
53036;SDS011;38924;52.134;4.666;2023-04-08T09:32:49;12.82;;;11.52;;
53036;SDS011;38924;52.134;4.666;2023-04-08T09:35:16;12.80;;;11.48;;
53036;SDS011;38924;52.134;4.666;2023-04-08T09:37:42;12.88;;;11.57;;
53036;SDS011;38924;52.134;4.666;2023-04-08T09:40:07;14.48;;;11.50;;
53036;SDS011;38924;52.134;4.666;2023-04-08T09:42:34;13.85;;;12.35;;
53036;SDS011;38924;52.134;4.666;2023-04-08T09:45:01;13.15;;;12.02;;
53036;SDS011;38924;52.134;4.666;2023-04-08T09:47:28;14.02;;;12.52;;
53036;SDS011;38924;52.134;4.666;2023-04-08T09:50:00;14.23;;;12.93;;
53036;SDS011;38924;52.134;4.666;2023-04-08T09:54:54;13.50;;;12.30;;
53036;SDS011;38924;52.134;4.666;2023-04-08T10:02:48;14.27;;;12.77;;
53036;SDS011;38924;52.134;4.666;2023-04-08T10:05:16;14.70;;;13.38;;
53036;SDS011;38924;52.134;4.666;2023-04-08T10:07:42;13.90;;;12.70;;
53036;SDS011;38924;52.134;4.666;2023-04-08T10:10:08;18.00;;;13.45;;
53036;SDS011;38924;52.134;4.666;2023-04-08T10:12:37;16.83;;;14.82;;
53036;SDS011;38924;52.134;4.666;2023-04-08T10:17:52;13.70;;;12.38;;
53036;SDS011;38924;52.134;4.666;2023-04-08T10:25:32;19.42;;;14.95;;
53036;SDS011;38924;52.134;4.666;2023-04-08T10:28:22;14.10;;;12.73;;
53036;SDS011;38924;52.134;4.666;2023-04-08T10:30:44;15.27;;;13.95;;
53036;SDS011;38924;52.134;4.666;2023-04-08T10:33:12;17.60;;;15.95;;
53036;SDS011;38924;52.134;4.666;2023-04-08T10:35:40;15.65;;;14.23;;
53036;SDS011;38924;52.134;4.666;2023-04-08T10:38:11;17.10;;;15.63;;
53036;SDS011;38924;52.134;4.666;2023-04-08T10:40:39;17.65;;;15.88;;
53036;SDS011;38924;52.134;4.666;2023-04-08T10:43:10;17.60;;;15.98;;
53036;SDS011;38924;52.134;4.666;2023-04-08T10:45:36;16.48;;;14.98;;
53036;SDS011;38924;52.134;4.666;2023-04-08T10:50:40;18.00;;;16.02;;
53036;SDS011;38924;52.134;4.666;2023-04-08T10:53:06;16.08;;;14.57;;
53036;SDS011;38924;52.134;4.666;2023-04-08T10:55:33;14.88;;;13.60;;
53036;SDS011;38924;52.134;4.666;2023-04-08T10:58:05;17.33;;;15.90;;
53036;SDS011;38924;52.134;4.666;2023-04-08T11:00:32;16.05;;;14.73;;
53036;SDS011;38924;52.134;4.666;2023-04-08T11:03:07;18.10;;;16.48;;
53036;SDS011;38924;52.134;4.666;2023-04-08T11:05:33;17.50;;;15.88;;
53036;SDS011;38924;52.134;4.666;2023-04-08T11:08:02;15.93;;;14.50;;
53036;SDS011;38924;52.134;4.666;2023-04-08T11:10:28;15.43;;;14.02;;
53036;SDS011;38924;52.134;4.666;2023-04-08T11:12:54;16.83;;;15.48;;
53036;SDS011;38924;52.134;4.666;2023-04-08T11:15:20;17.15;;;15.73;;
53036;SDS011;38924;52.134;4.666;2023-04-08T11:17:46;17.88;;;15.90;;
53036;SDS011;38924;52.134;4.666;2023-04-08T11:20:12;15.50;;;14.13;;
53036;SDS011;38924;52.134;4.666;2023-04-08T11:22:38;19.90;;;16.45;;
53036;SDS011;38924;52.134;4.666;2023-04-08T11:25:05;16.02;;;14.52;;
53036;SDS011;38924;52.134;4.666;2023-04-08T11:27:33;14.57;;;13.27;;
53036;SDS011;38924;52.134;4.666;2023-04-08T11:30:00;14.27;;;13.07;;
53036;SDS011;38924;52.134;4.666;2023-04-08T11:32:26;15.70;;;14.25;;
53036;SDS011;38924;52.134;4.666;2023-04-08T11:34:53;15.38;;;14.05;;
53036;SDS011;38924;52.134;4.666;2023-04-08T11:37:19;14.73;;;13.43;;
53036;SDS011;38924;52.134;4.666;2023-04-08T11:39:47;14.65;;;13.25;;
53036;SDS011;38924;52.134;4.666;2023-04-08T11:42:29;17.90;;;16.38;;
53036;SDS011;38924;52.134;4.666;2023-04-08T11:44:55;14.20;;;12.88;;
53036;SDS011;38924;52.134;4.666;2023-04-08T11:47:20;13.57;;;12.30;;
53036;SDS011;38924;52.134;4.666;2023-04-08T11:49:46;16.85;;;15.15;;
53036;SDS011;38924;52.134;4.666;2023-04-08T11:52:12;16.40;;;14.90;;
53036;SDS011;38924;52.134;4.666;2023-04-08T11:54:41;15.40;;;12.82;;
53036;SDS011;38924;52.134;4.666;2023-04-08T11:57:07;17.05;;;15.65;;
53036;SDS011;38924;52.134;4.666;2023-04-08T11:59:37;12.48;;;11.40;;
53036;SDS011;38924;52.134;4.666;2023-04-08T12:02:03;16.02;;;14.70;;
53036;SDS011;38924;52.134;4.666;2023-04-08T12:04:29;14.40;;;13.13;;
53036;SDS011;38924;52.134;4.666;2023-04-08T12:06:55;15.38;;;13.95;;
53036;SDS011;38924;52.134;4.666;2023-04-08T12:09:21;15.63;;;14.13;;
53036;SDS011;38924;52.134;4.666;2023-04-08T12:11:46;14.68;;;12.98;;
53036;SDS011;38924;52.134;4.666;2023-04-08T12:14:12;14.82;;;13.38;;
53036;SDS011;38924;52.134;4.666;2023-04-08T12:16:38;15.10;;;13.70;;
53036;SDS011;38924;52.134;4.666;2023-04-08T12:19:04;14.98;;;13.55;;
53036;SDS011;38924;52.134;4.666;2023-04-08T12:21:29;15.73;;;14.13;;
53036;SDS011;38924;52.134;4.666;2023-04-08T12:23:58;15.88;;;14.20;;
53036;SDS011;38924;52.134;4.666;2023-04-08T12:26:23;15.15;;;13.75;;
53036;SDS011;38924;52.134;4.666;2023-04-08T12:28:49;17.35;;;15.35;;
53036;SDS011;38924;52.134;4.666;2023-04-08T12:31:15;17.70;;;16.02;;
53036;SDS011;38924;52.134;4.666;2023-04-08T12:33:41;18.48;;;13.25;;
53036;SDS011;38924;52.134;4.666;2023-04-08T12:36:06;14.10;;;12.77;;
53036;SDS011;38924;52.134;4.666;2023-04-08T12:38:32;19.38;;;14.13;;
53036;SDS011;38924;52.134;4.666;2023-04-08T12:40:58;15.88;;;14.27;;
53036;SDS011;38924;52.134;4.666;2023-04-08T12:43:23;13.85;;;12.43;;
53036;SDS011;38924;52.134;4.666;2023-04-08T12:45:49;12.98;;;11.77;;
53036;SDS011;38924;52.134;4.666;2023-04-08T12:48:18;14.95;;;13.40;;
53036;SDS011;38924;52.134;4.666;2023-04-08T12:50:44;12.18;;;10.90;;
53036;SDS011;38924;52.134;4.666;2023-04-08T12:53:09;14.45;;;12.10;;
53036;SDS011;38924;52.134;4.666;2023-04-08T12:55:35;14.13;;;12.25;;
53036;SDS011;38924;52.134;4.666;2023-04-08T12:58:01;14.27;;;12.25;;
53036;SDS011;38924;52.134;4.666;2023-04-08T13:00:27;15.32;;;12.00;;
53036;SDS011;38924;52.134;4.666;2023-04-08T13:02:52;15.65;;;14.23;;
53036;SDS011;38924;52.134;4.666;2023-04-08T13:05:18;14.05;;;12.82;;
53036;SDS011;38924;52.134;4.666;2023-04-08T13:07:44;14.38;;;12.98;;
53036;SDS011;38924;52.134;4.666;2023-04-08T13:10:10;14.80;;;11.70;;
53036;SDS011;38924;52.134;4.666;2023-04-08T13:12:36;14.00;;;12.55;;
53036;SDS011;38924;52.134;4.666;2023-04-08T13:15:05;13.20;;;11.85;;
53036;SDS011;38924;52.134;4.666;2023-04-08T13:17:31;16.40;;;13.32;;
53036;SDS011;38924;52.134;4.666;2023-04-08T13:19:56;15.15;;;13.55;;
53036;SDS011;38924;52.134;4.666;2023-04-08T13:22:22;13.32;;;11.93;;
53036;SDS011;38924;52.134;4.666;2023-04-08T13:24:48;15.35;;;11.55;;
53036;SDS011;38924;52.134;4.666;2023-04-08T13:27:13;13.73;;;11.50;;
53036;SDS011;38924;52.134;4.666;2023-04-08T13:29:39;14.77;;;12.93;;
53036;SDS011;38924;52.134;4.666;2023-04-08T13:32:05;14.73;;;12.07;;
53036;SDS011;38924;52.134;4.666;2023-04-08T13:34:31;15.07;;;12.93;;
53036;SDS011;38924;52.134;4.666;2023-04-08T13:36:56;17.30;;;13.15;;
53036;SDS011;38924;52.134;4.666;2023-04-08T13:39:22;14.65;;;11.82;;
53036;SDS011;38924;52.134;4.666;2023-04-08T13:41:47;12.80;;;11.02;;
53036;SDS011;38924;52.134;4.666;2023-04-08T13:44:13;16.17;;;14.45;;
53036;SDS011;38924;52.134;4.666;2023-04-08T13:46:39;17.48;;;13.52;;
53036;SDS011;38924;52.134;4.666;2023-04-08T13:49:05;15.48;;;12.98;;
53036;SDS011;38924;52.134;4.666;2023-04-08T13:51:31;18.05;;;14.20;;
53036;SDS011;38924;52.134;4.666;2023-04-08T13:53:56;15.68;;;14.05;;
53036;SDS011;38924;52.134;4.666;2023-04-08T13:56:22;15.55;;;13.48;;
53036;SDS011;38924;52.134;4.666;2023-04-08T13:58:48;15.52;;;13.63;;
53036;SDS011;38924;52.134;4.666;2023-04-08T14:01:13;16.10;;;14.43;;
53036;SDS011;38924;52.134;4.666;2023-04-08T14:03:39;15.68;;;14.15;;
53036;SDS011;38924;52.134;4.666;2023-04-08T14:06:05;17.25;;;15.00;;
53036;SDS011;38924;52.134;4.666;2023-04-08T14:08:31;19.02;;;12.05;;
53036;SDS011;38924;52.134;4.666;2023-04-08T14:10:56;16.88;;;14.70;;
53036;SDS011;38924;52.134;4.666;2023-04-08T14:13:22;14.88;;;12.65;;
53036;SDS011;38924;52.134;4.666;2023-04-08T14:15:48;13.63;;;12.05;;
53036;SDS011;38924;52.134;4.666;2023-04-08T14:18:14;13.65;;;10.98;;
53036;SDS011;38924;52.134;4.666;2023-04-08T14:20:42;15.82;;;11.30;;
53036;SDS011;38924;52.134;4.666;2023-04-08T14:23:08;19.80;;;11.35;;
53036;SDS011;38924;52.134;4.666;2023-04-08T14:25:36;12.60;;;9.80;;
53036;SDS011;38924;52.134;4.666;2023-04-08T14:28:02;13.70;;;9.25;;
53036;SDS011;38924;52.134;4.666;2023-04-08T14:30:27;12.25;;;9.60;;
53036;SDS011;38924;52.134;4.666;2023-04-08T14:32:53;13.00;;;9.07;;
53036;SDS011;38924;52.134;4.666;2023-04-08T14:35:19;13.57;;;9.18;;
53036;SDS011;38924;52.134;4.666;2023-04-08T14:37:44;14.77;;;10.02;;
53036;SDS011;38924;52.134;4.666;2023-04-08T14:40:12;14.07;;;9.90;;
53036;SDS011;38924;52.134;4.666;2023-04-08T14:42:37;15.75;;;9.65;;